sensor_id;sensor_type;location;lat;lon;timestamp;temperature;humidity
12853;DHT22;6495;51.808;7.478;2023-12-04T00:02:02;1.30;99.90
12853;DHT22;6495;51.808;7.478;2023-12-04T00:04:32;1.30;99.90
12853;DHT22;6495;51.808;7.478;2023-12-04T00:07:00;1.30;99.90
12853;DHT22;6495;51.808;7.478;2023-12-04T00:09:29;1.30;99.90
12853;DHT22;6495;51.808;7.478;2023-12-04T00:11:57;1.30;99.90
12853;DHT22;6495;51.808;7.478;2023-12-04T00:14:25;1.30;99.90
12853;DHT22;6495;51.808;7.478;2023-12-04T00:16:54;1.30;99.90
12853;DHT22;6495;51.808;7.478;2023-12-04T00:19:22;1.30;99.90
12853;DHT22;6495;51.808;7.478;2023-12-04T00:21:52;1.30;99.90
12853;DHT22;6495;51.808;7.478;2023-12-04T00:24:20;1.30;99.90
12853;DHT22;6495;51.808;7.478;2023-12-04T00:26:49;1.30;99.90
12853;DHT22;6495;51.808;7.478;2023-12-04T00:29:17;1.40;99.90
12853;DHT22;6495;51.808;7.478;2023-12-04T00:31:45;1.30;99.90
12853;DHT22;6495;51.808;7.478;2023-12-04T00:34:13;1.40;99.90
12853;DHT22;6495;51.808;7.478;2023-12-04T00:36:42;1.40;99.90
12853;DHT22;6495;51.808;7.478;2023-12-04T00:39:11;1.40;99.90
12853;DHT22;6495;51.808;7.478;2023-12-04T00:41:40;1.40;99.90
12853;DHT22;6495;51.808;7.478;2023-12-04T00:44:08;1.40;99.90
12853;DHT22;6495;51.808;7.478;2023-12-04T00:46:36;1.40;99.90
12853;DHT22;6495;51.808;7.478;2023-12-04T00:49:05;1.40;99.90
12853;DHT22;6495;51.808;7.478;2023-12-04T00:51:37;1.40;99.90
12853;DHT22;6495;51.808;7.478;2023-12-04T00:54:06;1.40;99.90
12853;DHT22;6495;51.808;7.478;2023-12-04T00:56:38;1.30;99.90
12853;DHT22;6495;51.808;7.478;2023-12-04T00:59:08;1.40;99.90
12853;DHT22;6495;51.808;7.478;2023-12-04T01:01:37;1.30;99.90
12853;DHT22;6495;51.808;7.478;2023-12-04T01:04:05;1.30;99.90
12853;DHT22;6495;51.808;7.478;2023-12-04T01:06:34;1.30;99.90
12853;DHT22;6495;51.808;7.478;2023-12-04T01:09:03;1.30;99.90
12853;DHT22;6495;51.808;7.478;2023-12-04T01:11:31;1.40;99.90
12853;DHT22;6495;51.808;7.478;2023-12-04T01:14:01;1.40;99.90
12853;DHT22;6495;51.808;7.478;2023-12-04T01:16:29;1.30;99.90
12853;DHT22;6495;51.808;7.478;2023-12-04T01:18:59;1.30;99.90
12853;DHT22;6495;51.808;7.478;2023-12-04T01:21:27;1.40;99.90
12853;DHT22;6495;51.808;7.478;2023-12-04T01:23:55;1.30;99.90
12853;DHT22;6495;51.808;7.478;2023-12-04T01:26:24;1.40;99.90
12853;DHT22;6495;51.808;7.478;2023-12-04T01:28:52;1.40;99.90
12853;DHT22;6495;51.808;7.478;2023-12-04T01:31:22;1.40;99.90
12853;DHT22;6495;51.808;7.478;2023-12-04T01:33:50;1.30;99.90
12853;DHT22;6495;51.808;7.478;2023-12-04T01:36:19;1.40;99.90
12853;DHT22;6495;51.808;7.478;2023-12-04T01:38:47;1.40;99.90
12853;DHT22;6495;51.808;7.478;2023-12-04T01:41:16;1.40;99.90
12853;DHT22;6495;51.808;7.478;2023-12-04T01:43:44;1.40;99.90
12853;DHT22;6495;51.808;7.478;2023-12-04T01:46:15;1.40;99.90
12853;DHT22;6495;51.808;7.478;2023-12-04T01:48:46;1.40;99.90
12853;DHT22;6495;51.808;7.478;2023-12-04T01:51:17;1.40;99.90
12853;DHT22;6495;51.808;7.478;2023-12-04T01:53:47;1.40;99.90
12853;DHT22;6495;51.808;7.478;2023-12-04T01:56:16;1.40;99.90
12853;DHT22;6495;51.808;7.478;2023-12-04T01:58:45;1.40;99.90
12853;DHT22;6495;51.808;7.478;2023-12-04T02:01:14;1.40;99.90
12853;DHT22;6495;51.808;7.478;2023-12-04T02:03:43;1.40;99.90
12853;DHT22;6495;51.808;7.478;2023-12-04T02:06:13;1.40;99.90
12853;DHT22;6495;51.808;7.478;2023-12-04T02:08:42;1.40;99.90
12853;DHT22;6495;51.808;7.478;2023-12-04T02:11:12;1.40;99.90
12853;DHT22;6495;51.808;7.478;2023-12-04T02:13:40;1.40;99.90
12853;DHT22;6495;51.808;7.478;2023-12-04T02:16:10;1.40;99.90
12853;DHT22;6495;51.808;7.478;2023-12-04T02:18:42;1.40;99.90
12853;DHT22;6495;51.808;7.478;2023-12-04T02:21:12;1.40;99.90
12853;DHT22;6495;51.808;7.478;2023-12-04T02:23:41;1.40;99.90
12853;DHT22;6495;51.808;7.478;2023-12-04T02:26:15;1.40;99.90
12853;DHT22;6495;51.808;7.478;2023-12-04T02:28:50;1.40;99.90
12853;DHT22;6495;51.808;7.478;2023-12-04T02:31:22;1.40;99.90
12853;DHT22;6495;51.808;7.478;2023-12-04T02:33:55;1.40;99.90
12853;DHT22;6495;51.808;7.478;2023-12-04T02:36:25;1.40;99.90
12853;DHT22;6495;51.808;7.478;2023-12-04T02:38:56;1.40;99.90
12853;DHT22;6495;51.808;7.478;2023-12-04T02:41:26;1.40;99.90
12853;DHT22;6495;51.808;7.478;2023-12-04T02:43:55;1.40;99.90
12853;DHT22;6495;51.808;7.478;2023-12-04T02:46:24;1.40;99.90
12853;DHT22;6495;51.808;7.478;2023-12-04T02:48:52;1.40;99.90
12853;DHT22;6495;51.808;7.478;2023-12-04T02:51:20;1.40;99.90
12853;DHT22;6495;51.808;7.478;2023-12-04T02:53:49;1.40;99.90
12853;DHT22;6495;51.808;7.478;2023-12-04T02:56:17;1.40;99.90
12853;DHT22;6495;51.808;7.478;2023-12-04T02:58:46;1.40;99.90
12853;DHT22;6495;51.808;7.478;2023-12-04T03:01:14;1.40;99.90
12853;DHT22;6495;51.808;7.478;2023-12-04T03:03:42;1.40;99.90
12853;DHT22;6495;51.808;7.478;2023-12-04T03:06:10;1.30;99.90
12853;DHT22;6495;51.808;7.478;2023-12-04T03:08:39;1.30;99.90
12853;DHT22;6495;51.808;7.478;2023-12-04T03:11:07;1.30;99.90
12853;DHT22;6495;51.808;7.478;2023-12-04T03:13:35;1.30;99.90
12853;DHT22;6495;51.808;7.478;2023-12-04T03:16:06;1.30;99.90
12853;DHT22;6495;51.808;7.478;2023-12-04T03:18:42;1.30;99.90
12853;DHT22;6495;51.808;7.478;2023-12-04T03:21:11;1.30;99.90
12853;DHT22;6495;51.808;7.478;2023-12-04T03:23:39;1.30;99.90
12853;DHT22;6495;51.808;7.478;2023-12-04T03:26:07;1.30;99.90
12853;DHT22;6495;51.808;7.478;2023-12-04T03:28:38;1.30;99.90
12853;DHT22;6495;51.808;7.478;2023-12-04T03:31:09;1.30;99.90
12853;DHT22;6495;51.808;7.478;2023-12-04T03:33:37;1.30;99.90
12853;DHT22;6495;51.808;7.478;2023-12-04T03:36:06;1.30;99.90
12853;DHT22;6495;51.808;7.478;2023-12-04T03:38:35;1.30;99.90
12853;DHT22;6495;51.808;7.478;2023-12-04T03:41:04;1.30;99.90
12853;DHT22;6495;51.808;7.478;2023-12-04T03:43:34;1.30;99.90
12853;DHT22;6495;51.808;7.478;2023-12-04T03:46:02;1.30;99.90
12853;DHT22;6495;51.808;7.478;2023-12-04T03:48:32;1.30;99.90
12853;DHT22;6495;51.808;7.478;2023-12-04T03:51:01;1.20;99.90
12853;DHT22;6495;51.808;7.478;2023-12-04T03:53:29;1.20;99.90
12853;DHT22;6495;51.808;7.478;2023-12-04T03:55:58;1.20;99.90
12853;DHT22;6495;51.808;7.478;2023-12-04T03:58:27;1.20;99.90
12853;DHT22;6495;51.808;7.478;2023-12-04T04:00:55;1.20;99.90
12853;DHT22;6495;51.808;7.478;2023-12-04T04:03:23;1.20;99.90
12853;DHT22;6495;51.808;7.478;2023-12-04T04:05:53;1.20;99.90
12853;DHT22;6495;51.808;7.478;2023-12-04T04:08:21;1.20;99.90
12853;DHT22;6495;51.808;7.478;2023-12-04T04:10:50;1.20;99.90
12853;DHT22;6495;51.808;7.478;2023-12-04T04:13:18;1.20;99.90
12853;DHT22;6495;51.808;7.478;2023-12-04T04:15:46;1.20;99.90
12853;DHT22;6495;51.808;7.478;2023-12-04T04:18:14;1.20;99.90
12853;DHT22;6495;51.808;7.478;2023-12-04T04:20:43;1.20;99.90
12853;DHT22;6495;51.808;7.478;2023-12-04T04:23:12;1.20;99.90
12853;DHT22;6495;51.808;7.478;2023-12-04T04:25:41;1.20;99.90
12853;DHT22;6495;51.808;7.478;2023-12-04T04:28:09;1.20;99.90
12853;DHT22;6495;51.808;7.478;2023-12-04T04:30:38;1.30;99.90
12853;DHT22;6495;51.808;7.478;2023-12-04T04:33:06;1.30;99.90
12853;DHT22;6495;51.808;7.478;2023-12-04T04:35:35;1.30;99.90
12853;DHT22;6495;51.808;7.478;2023-12-04T04:38:04;1.30;99.90
12853;DHT22;6495;51.808;7.478;2023-12-04T04:40:33;1.30;99.90
12853;DHT22;6495;51.808;7.478;2023-12-04T04:43:02;1.30;99.90
12853;DHT22;6495;51.808;7.478;2023-12-04T04:45:30;1.20;99.90
12853;DHT22;6495;51.808;7.478;2023-12-04T04:47:58;1.30;99.90
12853;DHT22;6495;51.808;7.478;2023-12-04T04:50:27;1.30;99.90
12853;DHT22;6495;51.808;7.478;2023-12-04T04:52:55;1.30;99.90
12853;DHT22;6495;51.808;7.478;2023-12-04T04:55:23;1.30;99.90
12853;DHT22;6495;51.808;7.478;2023-12-04T04:58:13;1.30;99.90
12853;DHT22;6495;51.808;7.478;2023-12-04T05:00:41;1.30;99.90
12853;DHT22;6495;51.808;7.478;2023-12-04T05:03:09;1.30;99.90
12853;DHT22;6495;51.808;7.478;2023-12-04T05:05:38;1.30;99.90
12853;DHT22;6495;51.808;7.478;2023-12-04T05:08:06;1.30;99.90
12853;DHT22;6495;51.808;7.478;2023-12-04T05:10:34;1.40;99.90
12853;DHT22;6495;51.808;7.478;2023-12-04T05:13:03;1.30;99.90
12853;DHT22;6495;51.808;7.478;2023-12-04T05:15:32;1.40;99.90
12853;DHT22;6495;51.808;7.478;2023-12-04T05:18:01;1.40;99.90
12853;DHT22;6495;51.808;7.478;2023-12-04T05:20:29;1.40;99.90
12853;DHT22;6495;51.808;7.478;2023-12-04T05:22:58;1.40;99.90
12853;DHT22;6495;51.808;7.478;2023-12-04T05:25:26;1.40;99.90
12853;DHT22;6495;51.808;7.478;2023-12-04T05:28:03;1.40;99.90
12853;DHT22;6495;51.808;7.478;2023-12-04T05:30:33;1.40;99.90
12853;DHT22;6495;51.808;7.478;2023-12-04T05:33:01;1.40;99.90
12853;DHT22;6495;51.808;7.478;2023-12-04T05:35:30;1.40;99.90
12853;DHT22;6495;51.808;7.478;2023-12-04T05:38:00;1.40;99.90
12853;DHT22;6495;51.808;7.478;2023-12-04T05:40:29;1.40;99.90
12853;DHT22;6495;51.808;7.478;2023-12-04T05:42:57;1.40;99.90
12853;DHT22;6495;51.808;7.478;2023-12-04T05:45:25;1.40;99.90
12853;DHT22;6495;51.808;7.478;2023-12-04T05:47:55;1.50;99.90
12853;DHT22;6495;51.808;7.478;2023-12-04T05:50:23;1.40;99.90
12853;DHT22;6495;51.808;7.478;2023-12-04T05:52:51;1.40;99.90
12853;DHT22;6495;51.808;7.478;2023-12-04T05:55:20;1.50;99.90
12853;DHT22;6495;51.808;7.478;2023-12-04T05:57:48;1.40;99.90
12853;DHT22;6495;51.808;7.478;2023-12-04T06:00:17;1.50;99.90
12853;DHT22;6495;51.808;7.478;2023-12-04T06:02:45;1.40;99.90
12853;DHT22;6495;51.808;7.478;2023-12-04T06:05:15;1.50;99.90
12853;DHT22;6495;51.808;7.478;2023-12-04T06:07:43;1.40;99.90
12853;DHT22;6495;51.808;7.478;2023-12-04T06:10:12;1.50;99.90
12853;DHT22;6495;51.808;7.478;2023-12-04T06:12:40;1.50;99.90
12853;DHT22;6495;51.808;7.478;2023-12-04T06:15:09;1.50;99.90
12853;DHT22;6495;51.808;7.478;2023-12-04T06:17:37;1.50;99.90
12853;DHT22;6495;51.808;7.478;2023-12-04T06:20:07;1.50;99.90
12853;DHT22;6495;51.808;7.478;2023-12-04T06:22:40;1.50;99.90
12853;DHT22;6495;51.808;7.478;2023-12-04T06:25:09;1.50;99.90
12853;DHT22;6495;51.808;7.478;2023-12-04T06:27:39;1.50;99.90
12853;DHT22;6495;51.808;7.478;2023-12-04T06:30:08;1.50;99.90
12853;DHT22;6495;51.808;7.478;2023-12-04T06:32:37;1.50;99.90
12853;DHT22;6495;51.808;7.478;2023-12-04T06:35:07;1.50;99.90
12853;DHT22;6495;51.808;7.478;2023-12-04T06:37:40;1.50;99.90
12853;DHT22;6495;51.808;7.478;2023-12-04T06:40:09;1.50;99.90
12853;DHT22;6495;51.808;7.478;2023-12-04T06:42:39;1.40;99.90
12853;DHT22;6495;51.808;7.478;2023-12-04T06:45:08;1.50;99.90
12853;DHT22;6495;51.808;7.478;2023-12-04T06:47:40;1.50;99.90
12853;DHT22;6495;51.808;7.478;2023-12-04T06:50:11;1.50;99.90
12853;DHT22;6495;51.808;7.478;2023-12-04T06:52:40;1.40;99.90
12853;DHT22;6495;51.808;7.478;2023-12-04T06:55:08;1.40;99.90
12853;DHT22;6495;51.808;7.478;2023-12-04T06:57:37;1.40;99.90
12853;DHT22;6495;51.808;7.478;2023-12-04T07:00:06;1.40;99.90
12853;DHT22;6495;51.808;7.478;2023-12-04T07:02:48;1.40;99.90
12853;DHT22;6495;51.808;7.478;2023-12-04T07:05:17;1.40;99.90
12853;DHT22;6495;51.808;7.478;2023-12-04T07:07:49;1.40;99.90
12853;DHT22;6495;51.808;7.478;2023-12-04T07:10:17;1.40;99.90
12853;DHT22;6495;51.808;7.478;2023-12-04T07:12:46;1.40;99.90
12853;DHT22;6495;51.808;7.478;2023-12-04T07:15:14;1.40;99.90
12853;DHT22;6495;51.808;7.478;2023-12-04T07:17:43;1.40;99.90
12853;DHT22;6495;51.808;7.478;2023-12-04T07:20:12;1.40;99.90
12853;DHT22;6495;51.808;7.478;2023-12-04T07:22:40;1.40;99.90
12853;DHT22;6495;51.808;7.478;2023-12-04T07:25:10;1.40;99.90
12853;DHT22;6495;51.808;7.478;2023-12-04T07:27:38;1.40;99.90
12853;DHT22;6495;51.808;7.478;2023-12-04T07:30:07;1.40;99.90
12853;DHT22;6495;51.808;7.478;2023-12-04T07:32:36;1.40;99.90
12853;DHT22;6495;51.808;7.478;2023-12-04T07:35:06;1.40;99.90
12853;DHT22;6495;51.808;7.478;2023-12-04T07:37:35;1.40;99.90
12853;DHT22;6495;51.808;7.478;2023-12-04T07:40:04;1.40;99.90
12853;DHT22;6495;51.808;7.478;2023-12-04T07:42:36;1.40;99.90
12853;DHT22;6495;51.808;7.478;2023-12-04T07:45:06;1.40;99.90
12853;DHT22;6495;51.808;7.478;2023-12-04T07:47:37;1.40;99.90
12853;DHT22;6495;51.808;7.478;2023-12-04T07:50:06;1.40;99.90
12853;DHT22;6495;51.808;7.478;2023-12-04T07:52:35;1.40;99.90
12853;DHT22;6495;51.808;7.478;2023-12-04T07:55:04;1.40;99.90
12853;DHT22;6495;51.808;7.478;2023-12-04T07:57:33;1.40;99.90
12853;DHT22;6495;51.808;7.478;2023-12-04T08:00:03;1.50;99.90
12853;DHT22;6495;51.808;7.478;2023-12-04T08:02:32;1.50;99.90
12853;DHT22;6495;51.808;7.478;2023-12-04T08:05:01;1.50;99.90
12853;DHT22;6495;51.808;7.478;2023-12-04T08:07:30;1.50;99.90
12853;DHT22;6495;51.808;7.478;2023-12-04T08:09:58;1.50;99.90
12853;DHT22;6495;51.808;7.478;2023-12-04T08:12:26;1.50;99.90
12853;DHT22;6495;51.808;7.478;2023-12-04T08:14:55;1.50;99.90
12853;DHT22;6495;51.808;7.478;2023-12-04T08:17:24;1.50;99.90
12853;DHT22;6495;51.808;7.478;2023-12-04T08:19:52;1.50;99.90
12853;DHT22;6495;51.808;7.478;2023-12-04T08:22:21;1.50;99.90
12853;DHT22;6495;51.808;7.478;2023-12-04T08:24:49;1.50;99.90
12853;DHT22;6495;51.808;7.478;2023-12-04T08:27:18;1.50;99.90
12853;DHT22;6495;51.808;7.478;2023-12-04T08:29:46;1.60;99.90
12853;DHT22;6495;51.808;7.478;2023-12-04T08:32:14;1.60;99.90
12853;DHT22;6495;51.808;7.478;2023-12-04T08:34:44;1.60;99.90
12853;DHT22;6495;51.808;7.478;2023-12-04T08:37:12;1.60;99.90
12853;DHT22;6495;51.808;7.478;2023-12-04T08:39:41;1.60;99.90
12853;DHT22;6495;51.808;7.478;2023-12-04T08:42:09;1.60;99.90
12853;DHT22;6495;51.808;7.478;2023-12-04T08:44:47;1.60;99.90
12853;DHT22;6495;51.808;7.478;2023-12-04T08:47:15;1.60;99.90
12853;DHT22;6495;51.808;7.478;2023-12-04T08:49:45;1.60;99.90
12853;DHT22;6495;51.808;7.478;2023-12-04T08:52:15;1.60;99.90
12853;DHT22;6495;51.808;7.478;2023-12-04T08:54:44;1.70;99.90
12853;DHT22;6495;51.808;7.478;2023-12-04T08:57:12;1.70;99.90
12853;DHT22;6495;51.808;7.478;2023-12-04T08:59:41;1.70;99.90
12853;DHT22;6495;51.808;7.478;2023-12-04T09:02:09;1.70;99.90
12853;DHT22;6495;51.808;7.478;2023-12-04T09:04:40;1.80;99.90
12853;DHT22;6495;51.808;7.478;2023-12-04T09:07:11;1.80;99.90
12853;DHT22;6495;51.808;7.478;2023-12-04T09:09:59;1.80;99.90
12853;DHT22;6495;51.808;7.478;2023-12-04T09:12:36;1.80;99.90
12853;DHT22;6495;51.808;7.478;2023-12-04T09:15:05;1.80;99.90
12853;DHT22;6495;51.808;7.478;2023-12-04T09:17:35;1.80;99.90
12853;DHT22;6495;51.808;7.478;2023-12-04T09:20:06;1.90;99.90
12853;DHT22;6495;51.808;7.478;2023-12-04T09:22:37;1.90;99.90
12853;DHT22;6495;51.808;7.478;2023-12-04T09:25:18;1.90;99.90
12853;DHT22;6495;51.808;7.478;2023-12-04T09:27:47;1.90;99.90
12853;DHT22;6495;51.808;7.478;2023-12-04T09:30:15;1.90;99.90
12853;DHT22;6495;51.808;7.478;2023-12-04T09:32:43;1.90;99.90
12853;DHT22;6495;51.808;7.478;2023-12-04T09:35:12;2.00;99.90
12853;DHT22;6495;51.808;7.478;2023-12-04T09:37:43;2.00;99.90
12853;DHT22;6495;51.808;7.478;2023-12-04T09:40:12;2.00;99.90
12853;DHT22;6495;51.808;7.478;2023-12-04T09:42:41;2.00;99.90
12853;DHT22;6495;51.808;7.478;2023-12-04T09:45:10;2.00;99.90
12853;DHT22;6495;51.808;7.478;2023-12-04T09:47:40;2.00;99.90
12853;DHT22;6495;51.808;7.478;2023-12-04T09:50:10;2.00;99.90
12853;DHT22;6495;51.808;7.478;2023-12-04T09:52:39;2.10;99.90
12853;DHT22;6495;51.808;7.478;2023-12-04T09:55:09;2.10;99.90
12853;DHT22;6495;51.808;7.478;2023-12-04T09:57:38;2.10;99.90
12853;DHT22;6495;51.808;7.478;2023-12-04T10:00:07;2.10;99.90
12853;DHT22;6495;51.808;7.478;2023-12-04T10:02:39;2.20;99.90
12853;DHT22;6495;51.808;7.478;2023-12-04T10:05:09;2.20;99.90
12853;DHT22;6495;51.808;7.478;2023-12-04T10:07:38;2.20;99.90
12853;DHT22;6495;51.808;7.478;2023-12-04T10:10:08;2.20;99.90
12853;DHT22;6495;51.808;7.478;2023-12-04T10:12:37;2.20;99.90
12853;DHT22;6495;51.808;7.478;2023-12-04T10:15:08;2.30;99.90
12853;DHT22;6495;51.808;7.478;2023-12-04T10:17:39;2.30;99.90
12853;DHT22;6495;51.808;7.478;2023-12-04T10:20:10;2.30;99.90
12853;DHT22;6495;51.808;7.478;2023-12-04T10:22:51;2.30;99.90
12853;DHT22;6495;51.808;7.478;2023-12-04T10:25:22;2.30;99.90
12853;DHT22;6495;51.808;7.478;2023-12-04T10:27:52;2.30;99.90
12853;DHT22;6495;51.808;7.478;2023-12-04T10:30:23;2.40;99.90
12853;DHT22;6495;51.808;7.478;2023-12-04T10:32:54;2.40;99.90
12853;DHT22;6495;51.808;7.478;2023-12-04T10:35:28;2.40;99.90
12853;DHT22;6495;51.808;7.478;2023-12-04T10:37:58;2.40;99.90
12853;DHT22;6495;51.808;7.478;2023-12-04T10:40:30;2.40;99.90
12853;DHT22;6495;51.808;7.478;2023-12-04T10:43:16;2.40;99.90
12853;DHT22;6495;51.808;7.478;2023-12-04T10:45:47;2.50;99.90
12853;DHT22;6495;51.808;7.478;2023-12-04T10:48:18;2.50;99.90
12853;DHT22;6495;51.808;7.478;2023-12-04T10:50:48;2.50;99.90
12853;DHT22;6495;51.808;7.478;2023-12-04T10:53:17;2.50;99.90
12853;DHT22;6495;51.808;7.478;2023-12-04T10:55:49;2.50;99.90
12853;DHT22;6495;51.808;7.478;2023-12-04T10:58:26;2.50;99.90
12853;DHT22;6495;51.808;7.478;2023-12-04T11:00:55;2.50;99.90
12853;DHT22;6495;51.808;7.478;2023-12-04T11:03:34;2.60;99.90
12853;DHT22;6495;51.808;7.478;2023-12-04T11:06:08;2.60;99.90
12853;DHT22;6495;51.808;7.478;2023-12-04T11:08:42;2.60;99.90
12853;DHT22;6495;51.808;7.478;2023-12-04T11:11:14;2.60;99.90
12853;DHT22;6495;51.808;7.478;2023-12-04T11:13:48;2.60;99.90
12853;DHT22;6495;51.808;7.478;2023-12-04T11:16:22;2.60;99.90
12853;DHT22;6495;51.808;7.478;2023-12-04T11:18:59;2.60;99.90
12853;DHT22;6495;51.808;7.478;2023-12-04T11:21:32;2.60;99.90
12853;DHT22;6495;51.808;7.478;2023-12-04T11:24:03;2.70;99.90
12853;DHT22;6495;51.808;7.478;2023-12-04T11:26:35;2.70;99.90
12853;DHT22;6495;51.808;7.478;2023-12-04T11:29:04;2.70;99.90
12853;DHT22;6495;51.808;7.478;2023-12-04T11:31:35;2.70;99.90
12853;DHT22;6495;51.808;7.478;2023-12-04T11:34:04;2.70;99.90
12853;DHT22;6495;51.808;7.478;2023-12-04T11:36:36;2.70;99.90
12853;DHT22;6495;51.808;7.478;2023-12-04T11:39:09;2.70;99.90
12853;DHT22;6495;51.808;7.478;2023-12-04T11:41:41;2.80;99.90
12853;DHT22;6495;51.808;7.478;2023-12-04T11:44:12;2.80;99.90
12853;DHT22;6495;51.808;7.478;2023-12-04T11:46:55;2.80;99.90
12853;DHT22;6495;51.808;7.478;2023-12-04T11:49:27;2.80;99.90
12853;DHT22;6495;51.808;7.478;2023-12-04T11:51:57;2.80;99.90
12853;DHT22;6495;51.808;7.478;2023-12-04T11:54:27;2.80;99.90
12853;DHT22;6495;51.808;7.478;2023-12-04T11:57:00;2.80;99.90
12853;DHT22;6495;51.808;7.478;2023-12-04T11:59:48;2.80;99.90
12853;DHT22;6495;51.808;7.478;2023-12-04T12:02:16;2.90;99.90
12853;DHT22;6495;51.808;7.478;2023-12-04T12:04:45;2.90;99.90
12853;DHT22;6495;51.808;7.478;2023-12-04T12:07:15;2.90;99.90
12853;DHT22;6495;51.808;7.478;2023-12-04T12:09:44;2.90;99.90
12853;DHT22;6495;51.808;7.478;2023-12-04T12:12:16;2.90;99.90
12853;DHT22;6495;51.808;7.478;2023-12-04T12:14:45;2.90;99.90
12853;DHT22;6495;51.808;7.478;2023-12-04T12:17:13;2.90;99.90
12853;DHT22;6495;51.808;7.478;2023-12-04T12:19:42;2.90;99.90
12853;DHT22;6495;51.808;7.478;2023-12-04T12:22:11;2.90;99.90
12853;DHT22;6495;51.808;7.478;2023-12-04T12:24:39;2.90;99.90
12853;DHT22;6495;51.808;7.478;2023-12-04T12:27:08;2.90;99.90
12853;DHT22;6495;51.808;7.478;2023-12-04T12:29:38;2.90;99.90
12853;DHT22;6495;51.808;7.478;2023-12-04T12:32:06;2.90;99.90
12853;DHT22;6495;51.808;7.478;2023-12-04T12:34:33;3.00;99.90
12853;DHT22;6495;51.808;7.478;2023-12-04T12:37:03;3.00;99.90
12853;DHT22;6495;51.808;7.478;2023-12-04T12:39:33;3.00;99.90
12853;DHT22;6495;51.808;7.478;2023-12-04T12:42:02;3.00;99.90
12853;DHT22;6495;51.808;7.478;2023-12-04T12:44:38;3.00;99.90
12853;DHT22;6495;51.808;7.478;2023-12-04T12:47:07;3.00;99.90
12853;DHT22;6495;51.808;7.478;2023-12-04T12:49:35;3.00;99.90
12853;DHT22;6495;51.808;7.478;2023-12-04T12:52:10;3.00;99.90
12853;DHT22;6495;51.808;7.478;2023-12-04T12:54:39;3.00;99.90
12853;DHT22;6495;51.808;7.478;2023-12-04T12:57:09;3.10;99.90
12853;DHT22;6495;51.808;7.478;2023-12-04T12:59:39;3.00;99.90
12853;DHT22;6495;51.808;7.478;2023-12-04T13:02:08;3.00;99.90
12853;DHT22;6495;51.808;7.478;2023-12-04T13:04:37;3.10;99.90
12853;DHT22;6495;51.808;7.478;2023-12-04T13:07:08;3.10;99.90
12853;DHT22;6495;51.808;7.478;2023-12-04T13:09:37;3.10;99.90
12853;DHT22;6495;51.808;7.478;2023-12-04T13:12:06;3.10;99.90
12853;DHT22;6495;51.808;7.478;2023-12-04T13:14:37;3.20;99.90
12853;DHT22;6495;51.808;7.478;2023-12-04T13:17:08;3.20;99.90
12853;DHT22;6495;51.808;7.478;2023-12-04T13:19:37;3.20;99.90
12853;DHT22;6495;51.808;7.478;2023-12-04T13:22:05;3.20;99.90
12853;DHT22;6495;51.808;7.478;2023-12-04T13:24:34;3.20;99.90
12853;DHT22;6495;51.808;7.478;2023-12-04T13:27:03;3.20;99.90
12853;DHT22;6495;51.808;7.478;2023-12-04T13:29:32;3.30;99.90
12853;DHT22;6495;51.808;7.478;2023-12-04T13:32:02;3.30;99.90
12853;DHT22;6495;51.808;7.478;2023-12-04T13:34:31;3.30;99.90
12853;DHT22;6495;51.808;7.478;2023-12-04T13:37:00;3.30;99.90
12853;DHT22;6495;51.808;7.478;2023-12-04T13:39:28;3.30;99.90
12853;DHT22;6495;51.808;7.478;2023-12-04T13:42:14;3.30;99.90
12853;DHT22;6495;51.808;7.478;2023-12-04T13:45:00;3.30;99.90
12853;DHT22;6495;51.808;7.478;2023-12-04T13:47:33;3.30;99.90
12853;DHT22;6495;51.808;7.478;2023-12-04T13:50:02;3.30;99.90
12853;DHT22;6495;51.808;7.478;2023-12-04T13:52:30;3.30;99.90
12853;DHT22;6495;51.808;7.478;2023-12-04T13:55:01;3.30;99.90
12853;DHT22;6495;51.808;7.478;2023-12-04T13:57:37;3.30;99.90
12853;DHT22;6495;51.808;7.478;2023-12-04T14:00:21;3.30;99.90
12853;DHT22;6495;51.808;7.478;2023-12-04T14:02:52;3.30;99.90
12853;DHT22;6495;51.808;7.478;2023-12-04T14:05:27;3.30;99.90
12853;DHT22;6495;51.808;7.478;2023-12-04T14:07:55;3.30;99.90
12853;DHT22;6495;51.808;7.478;2023-12-04T14:10:26;3.30;99.90
12853;DHT22;6495;51.808;7.478;2023-12-04T14:12:55;3.30;99.90
12853;DHT22;6495;51.808;7.478;2023-12-04T14:15:25;3.30;99.90
12853;DHT22;6495;51.808;7.478;2023-12-04T14:17:55;3.20;99.90
12853;DHT22;6495;51.808;7.478;2023-12-04T14:20:23;3.20;99.90
12853;DHT22;6495;51.808;7.478;2023-12-04T14:22:52;3.20;99.90
12853;DHT22;6495;51.808;7.478;2023-12-04T14:25:21;3.20;99.90
12853;DHT22;6495;51.808;7.478;2023-12-04T14:27:50;3.20;99.90
12853;DHT22;6495;51.808;7.478;2023-12-04T14:30:18;3.20;99.90
12853;DHT22;6495;51.808;7.478;2023-12-04T14:32:47;3.20;99.90
12853;DHT22;6495;51.808;7.478;2023-12-04T14:35:17;3.20;99.90
12853;DHT22;6495;51.808;7.478;2023-12-04T14:37:46;3.10;99.90
12853;DHT22;6495;51.808;7.478;2023-12-04T14:40:14;3.10;99.90
12853;DHT22;6495;51.808;7.478;2023-12-04T14:42:43;3.10;99.90
12853;DHT22;6495;51.808;7.478;2023-12-04T14:45:12;3.10;99.90
12853;DHT22;6495;51.808;7.478;2023-12-04T14:47:41;3.10;99.90
12853;DHT22;6495;51.808;7.478;2023-12-04T14:50:09;3.00;99.90
12853;DHT22;6495;51.808;7.478;2023-12-04T14:52:39;3.00;99.90
12853;DHT22;6495;51.808;7.478;2023-12-04T14:55:14;3.00;99.90
12853;DHT22;6495;51.808;7.478;2023-12-04T14:58:14;3.00;99.90
12853;DHT22;6495;51.808;7.478;2023-12-04T15:01:02;3.00;99.90
12853;DHT22;6495;51.808;7.478;2023-12-04T15:03:51;3.00;99.90
12853;DHT22;6495;51.808;7.478;2023-12-04T15:06:55;2.90;99.90
12853;DHT22;6495;51.808;7.478;2023-12-04T15:09:42;2.90;99.90
12853;DHT22;6495;51.808;7.478;2023-12-04T15:12:27;2.90;99.90
12853;DHT22;6495;51.808;7.478;2023-12-04T15:15:08;2.90;99.90
12853;DHT22;6495;51.808;7.478;2023-12-04T15:17:42;2.90;99.90
12853;DHT22;6495;51.808;7.478;2023-12-04T15:20:17;2.90;99.90
12853;DHT22;6495;51.808;7.478;2023-12-04T15:22:59;2.90;99.90
12853;DHT22;6495;51.808;7.478;2023-12-04T15:25:29;2.90;99.90
12853;DHT22;6495;51.808;7.478;2023-12-04T15:27:56;2.90;99.90
12853;DHT22;6495;51.808;7.478;2023-12-04T15:30:25;2.90;99.90
12853;DHT22;6495;51.808;7.478;2023-12-04T15:32:52;2.80;99.90
12853;DHT22;6495;51.808;7.478;2023-12-04T15:35:21;2.80;99.90
12853;DHT22;6495;51.808;7.478;2023-12-04T15:37:48;2.80;99.90
12853;DHT22;6495;51.808;7.478;2023-12-04T15:40:17;2.80;99.90
12853;DHT22;6495;51.808;7.478;2023-12-04T15:42:45;2.80;99.90
12853;DHT22;6495;51.808;7.478;2023-12-04T15:45:14;2.80;99.90
12853;DHT22;6495;51.808;7.478;2023-12-04T15:47:41;2.70;99.90
12853;DHT22;6495;51.808;7.478;2023-12-04T15:50:10;2.70;99.90
12853;DHT22;6495;51.808;7.478;2023-12-04T15:52:37;2.70;99.90
12853;DHT22;6495;51.808;7.478;2023-12-04T15:55:08;2.70;99.90
12853;DHT22;6495;51.808;7.478;2023-12-04T15:57:39;2.60;99.90
12853;DHT22;6495;51.808;7.478;2023-12-04T16:00:09;2.60;99.90
12853;DHT22;6495;51.808;7.478;2023-12-04T16:02:40;2.60;99.90
12853;DHT22;6495;51.808;7.478;2023-12-04T16:05:08;2.60;99.90
12853;DHT22;6495;51.808;7.478;2023-12-04T16:07:38;2.50;99.90
12853;DHT22;6495;51.808;7.478;2023-12-04T16:10:08;2.50;99.90
12853;DHT22;6495;51.808;7.478;2023-12-04T16:12:37;2.50;99.90
12853;DHT22;6495;51.808;7.478;2023-12-04T16:15:08;2.50;99.90
12853;DHT22;6495;51.808;7.478;2023-12-04T16:17:38;2.50;99.90
12853;DHT22;6495;51.808;7.478;2023-12-04T16:20:07;2.50;99.90
12853;DHT22;6495;51.808;7.478;2023-12-04T16:22:39;2.50;99.90